Time;durP1;ratioP1;P1;durP2;ratioP2;P2;SDS_P1;SDS_P2;PMS_P1;PMS_P2;Temp;Humidity;BMP_temperature;BMP_pressure;BME280_temperature;BME280_humidity;BME280_pressure;Samples;Min_cycle;Max_cycle;Signal;HPM_P1;HPM_P2
2023/04/17 00:01:32;;;;;;;;;10.00;9.00;21.40;38.50;;;;;;111229;1243;49405;-60
2023/04/17 00:03:58;;;;;;;;;9.50;8.00;21.40;38.50;;;;;;111253;1241;46149;-60
2023/04/17 00:06:26;;;;;;;;;10.00;8.00;21.40;38.50;;;;;;111503;1241;55468;-63
2023/04/17 00:08:53;;;;;;;;;11.00;9.25;21.40;38.50;;;;;;111310;1244;54800;-59
2023/04/17 00:11:20;;;;;;;;;8.75;7.75;21.40;38.50;;;;;;111186;1244;49524;-61
2023/04/17 00:13:47;;;;;;;;;8.75;7.75;21.40;38.60;;;;;;110993;1239;49099;-60
2023/04/17 00:16:14;;;;;;;;;9.75;7.75;21.40;38.60;;;;;;111274;1241;45261;-61
2023/04/17 00:18:41;;;;;;;;;8.75;7.00;21.40;38.70;;;;;;111256;1241;55384;-61
2023/04/17 00:21:08;;;;;;;;;8.00;7.00;21.40;38.50;;;;;;111191;1244;54367;-61
2023/04/17 00:23:35;;;;;;;;;10.00;8.50;21.40;38.50;;;;;;111188;1244;49176;-61
2023/04/17 00:26:02;;;;;;;;;12.00;10.00;21.40;38.60;;;;;;111294;1244;49936;-60
2023/04/17 00:28:29;;;;;;;;;8.50;7.00;21.40;38.60;;;;;;111320;1245;45150;-60
2023/04/17 00:30:57;;;;;;;;;9.00;8.00;21.40;38.60;;;;;;111205;1242;55463;-61
2023/04/17 00:33:24;;;;;;;;;11.00;8.00;21.40;38.60;;;;;;111246;1243;53562;-61
2023/04/17 00:35:51;;;;;;;;;9.33;8.00;21.30;38.50;;;;;;111168;1244;50393;-60
2023/04/17 00:38:18;;;;;;;;;9.00;8.00;21.40;38.60;;;;;;111180;1244;48881;-60
2023/04/17 00:40:45;;;;;;;;;9.25;8.00;21.40;38.60;;;;;;111259;1243;45433;-60
2023/04/17 00:43:12;;;;;;;;;9.75;7.75;21.30;38.50;;;;;;111251;1244;56593;-59
2023/04/17 00:45:40;;;;;;;;;10.00;8.00;21.30;38.60;;;;;;111219;1244;53904;-60
2023/04/17 00:48:08;;;;;;;;;10.00;8.00;21.30;38.60;;;;;;111171;1241;48972;-61
2023/04/17 00:50:35;;;;;;;;;9.67;8.00;21.30;38.60;;;;;;111253;1243;50401;-61
2023/04/17 00:53:02;;;;;;;;;9.00;7.00;21.30;38.60;;;;;;111080;1241;46571;-61
2023/04/17 00:55:30;;;;;;;;;9.00;8.00;21.30;38.70;;;;;;111226;1240;55388;-60
2023/04/17 00:57:57;;;;;;;;;9.00;7.75;21.30;38.90;;;;;;110918;1244;53584;-60
2023/04/17 01:00:24;;;;;;;;;12.00;10.00;21.30;38.70;;;;;;111259;1239;49018;-60
2023/04/17 01:02:51;;;;;;;;;10.75;7.75;21.30;38.70;;;;;;111187;1244;49714;-60
2023/04/17 01:05:19;;;;;;;;;10.00;7.00;21.30;38.90;;;;;;111202;1244;45908;-60
2023/04/17 01:07:46;;;;;;;;;10.00;9.00;21.30;38.70;;;;;;111181;1241;55784;-60
2023/04/17 01:10:13;;;;;;;;;9.25;8.00;21.30;38.70;;;;;;111201;1244;53703;-60
2023/04/17 01:12:42;;;;;;;;;8.50;7.50;21.30;38.70;;;;;;111251;1241;49401;-61
2023/04/17 01:15:09;;;;;;;;;11.00;9.50;21.30;38.80;;;;;;111234;1244;48688;-61
2023/04/17 01:17:37;;;;;;;;;10.00;8.75;21.20;38.70;;;;;;111234;1243;46420;-61
2023/04/17 01:20:09;;;;;;;;;11.75;8.75;21.20;38.70;;;;;;111192;1241;55193;-60
2023/04/17 01:22:36;;;;;;;;;9.00;8.00;21.20;38.70;;;;;;111299;1241;53957;-60
2023/04/17 01:25:04;;;;;;;;;9.25;7.75;21.20;39.00;;;;;;111171;1244;49979;-60
2023/04/17 01:27:31;;;;;;;;;9.00;7.67;21.20;38.80;;;;;;111224;1241;49193;-60
2023/04/17 01:29:58;;;;;;;;;8.67;7.00;21.20;38.80;;;;;;111169;1244;46326;-60
2023/04/17 01:32:25;;;;;;;;;10.00;7.67;21.20;38.80;;;;;;111188;1244;55101;-60
2023/04/17 01:34:52;;;;;;;;;10.00;9.00;21.20;39.00;;;;;;111181;1241;54473;-61
2023/04/17 01:37:19;;;;;;;;;9.00;8.00;21.20;38.80;;;;;;111173;1243;50302;-59
2023/04/17 01:39:46;;;;;;;;;10.50;7.75;21.10;38.80;;;;;;111258;1241;48865;-61
2023/04/17 01:42:13;;;;;;;;;8.75;7.75;21.20;38.80;;;;;;111169;1244;46598;-60
2023/04/17 01:44:40;;;;;;;;;10.25;9.00;21.10;38.70;;;;;;111274;1240;56167;-60
2023/04/17 01:47:07;;;;;;;;;9.75;8.50;21.10;38.80;;;;;;111198;1239;54041;-60
2023/04/17 01:49:34;;;;;;;;;9.50;8.50;21.10;39.30;;;;;;111203;1243;49855;-61
2023/04/17 01:52:01;;;;;;;;;8.75;7.75;21.10;38.70;;;;;;111236;1244;48785;-60
2023/04/17 01:54:28;;;;;;;;;10.75;8.75;21.20;39.10;;;;;;111226;1241;45411;-61
2023/04/17 01:56:55;;;;;;;;;9.00;8.00;21.10;39.00;;;;;;111216;1244;55722;-62
2023/04/17 01:59:23;;;;;;;;;10.67;8.67;21.10;38.80;;;;;;111287;1244;54228;-62
2023/04/17 02:01:50;;;;;;;;;8.00;7.00;21.10;38.80;;;;;;111274;1244;48905;-61
2023/04/17 02:04:17;;;;;;;;;10.00;9.00;21.10;39.30;;;;;;110985;1247;49207;-59
2023/04/17 02:06:44;;;;;;;;;9.75;8.00;21.10;38.80;;;;;;111189;1241;46544;-59
2023/04/17 02:09:11;;;;;;;;;9.00;7.75;21.10;38.80;;;;;;111215;1244;55704;-61
2023/04/17 02:11:38;;;;;;;;;8.75;7.50;21.10;38.80;;;;;;111194;1241;53479;-59
2023/04/17 02:14:04;;;;;;;;;9.00;7.25;21.10;38.80;;;;;;111217;1241;49435;-60
2023/04/17 02:16:31;;;;;;;;;9.75;8.00;21.10;38.90;;;;;;111207;1241;50388;-61
2023/04/17 02:18:58;;;;;;;;;8.75;7.75;21.10;38.90;;;;;;111183;1244;45773;-60
2023/04/17 02:21:28;;;;;;;;;9.67;8.67;21.10;38.80;;;;;;111253;1241;56722;-61
2023/04/17 02:23:55;;;;;;;;;9.67;7.67;21.10;38.80;;;;;;111162;1244;53423;-61
2023/04/17 02:26:22;;;;;;;;;9.50;8.00;21.10;38.80;;;;;;111504;1240;49583;-61
2023/04/17 02:28:49;;;;;;;;;9.75;8.75;21.10;39.00;;;;;;111372;1240;49221;-60
2023/04/17 02:31:16;;;;;;;;;8.67;7.67;21.10;38.70;;;;;;111184;1244;46518;-62
2023/04/17 02:33:43;;;;;;;;;10.00;9.00;21.10;38.70;;;;;;111191;1240;55714;-61
2023/04/17 02:36:10;;;;;;;;;14.00;9.00;21.10;38.90;;;;;;111295;1241;54331;-61
2023/04/17 02:38:38;;;;;;;;;9.00;7.00;21.10;38.80;;;;;;111018;1241;49571;-61
2023/04/17 02:41:05;;;;;;;;;11.50;8.75;21.10;38.30;;;;;;111178;1243;49819;-60
2023/04/17 02:43:32;;;;;;;;;10.50;8.00;21.10;38.70;;;;;;111191;1239;45250;-61
2023/04/17 02:46:00;;;;;;;;;11.00;9.50;21.10;38.80;;;;;;111194;1244;55455;-60
2023/04/17 02:48:27;;;;;;;;;11.00;9.75;21.10;39.00;;;;;;111241;1240;54590;-60
2023/04/17 02:50:54;;;;;;;;;9.50;8.00;21.10;38.80;;;;;;111164;1241;49886;-61
2023/04/17 02:53:21;;;;;;;;;8.75;7.25;21.10;38.80;;;;;;111165;1240;48710;-61
2023/04/17 02:55:48;;;;;;;;;10.33;9.00;21.10;38.80;;;;;;111197;1243;46345;-61
2023/04/17 02:58:14;;;;;;;;;9.67;7.67;21.10;38.80;;;;;;111239;1241;56754;-60
2023/04/17 03:00:41;;;;;;;;;9.50;7.75;21.10;38.80;;;;;;111001;1241;54556;-61
2023/04/17 03:03:08;;;;;;;;;9.33;8.00;21.10;38.80;;;;;;111289;1243;49793;-61
2023/04/17 03:05:35;;;;;;;;;9.75;7.75;21.00;38.80;;;;;;111342;1241;48394;-60
2023/04/17 03:08:03;;;;;;;;;9.00;7.00;21.00;38.80;;;;;;111249;1240;45985;-62
2023/04/17 03:10:30;;;;;;;;;9.00;7.75;21.00;39.00;;;;;;111289;1243;55735;-61
2023/04/17 03:12:57;;;;;;;;;9.75;8.25;21.00;38.80;;;;;;111272;1241;53841;-59
2023/04/17 03:15:23;;;;;;;;;10.00;8.00;21.00;39.00;;;;;;111161;1244;48587;-61
2023/04/17 03:17:50;;;;;;;;;8.75;7.25;21.00;38.90;;;;;;111136;1242;50205;-61
2023/04/17 03:20:17;;;;;;;;;8.50;7.50;21.00;38.90;;;;;;111238;1244;45301;-61
2023/04/17 03:22:44;;;;;;;;;9.75;8.25;21.00;38.90;;;;;;111242;1244;55819;-61
2023/04/17 03:25:11;;;;;;;;;8.75;7.25;21.00;38.90;;;;;;111252;1244;54288;-61
2023/04/17 03:27:38;;;;;;;;;10.00;8.25;21.00;38.90;;;;;;111218;1244;49473;-61
2023/04/17 03:30:07;;;;;;;;;8.67;8.00;21.00;38.90;;;;;;111245;1240;49500;-61
2023/04/17 03:32:34;;;;;;;;;9.00;8.00;21.00;39.10;;;;;;111260;1241;45567;-60
2023/04/17 03:35:01;;;;;;;;;8.75;7.75;21.00;39.00;;;;;;111142;1244;55859;-60
2023/04/17 03:37:28;;;;;;;;;9.00;7.75;20.90;38.90;;;;;;111204;1241;53772;-61
2023/04/17 03:39:55;;;;;;;;;9.00;7.75;20.90;38.90;;;;;;111203;1244;50007;-61
2023/04/17 03:42:21;;;;;;;;;10.00;9.00;20.90;38.90;;;;;;111173;1241;49304;-61
2023/04/17 03:44:49;;;;;;;;;10.75;9.50;20.90;38.90;;;;;;111209;1241;45953;-61
2023/04/17 03:47:16;;;;;;;;;10.00;8.50;20.90;39.00;;;;;;111236;1241;55489;-60
2023/04/17 03:49:43;;;;;;;;;12.00;10.00;20.90;39.00;;;;;;111208;1244;54118;-61
2023/04/17 03:52:09;;;;;;;;;9.75;8.00;20.90;39.40;;;;;;111230;1241;49708;-61
2023/04/17 03:54:37;;;;;;;;;9.00;8.00;20.90;39.20;;;;;;111292;1240;49314;-60
2023/04/17 03:57:04;;;;;;;;;9.67;8.00;20.90;39.20;;;;;;111289;1243;46324;-60
2023/04/17 03:59:31;;;;;;;;;10.75;9.50;20.90;39.10;;;;;;111219;1243;55583;-61
2023/04/17 04:01:58;;;;;;;;;9.75;8.50;20.90;39.10;;;;;;111221;1241;53534;-61
2023/04/17 04:04:25;;;;;;;;;9.00;8.00;20.80;39.00;;;;;;111320;1243;49002;-61
2023/04/17 04:06:56;;;;;;;;;9.00;8.00;20.80;39.20;;;;;;111237;1244;50634;-62
2023/04/17 04:09:24;;;;;;;;;9.00;7.67;20.80;39.00;;;;;;111139;1244;46155;-61
2023/04/17 04:11:51;;;;;;;;;10.75;8.75;20.90;39.30;;;;;;111322;1243;55362;-60
2023/04/17 04:14:18;;;;;;;;;9.75;8.75;20.80;39.00;;;;;;111157;1244;53729;-60
2023/04/17 04:16:45;;;;;;;;;10.00;9.00;20.80;39.10;;;;;;111144;1244;49493;-60
2023/04/17 04:19:12;;;;;;;;;9.00;8.00;20.80;39.30;;;;;;111189;1240;50354;-60
2023/04/17 04:21:40;;;;;;;;;10.00;8.33;20.80;39.10;;;;;;111160;1244;46058;-61
2023/04/17 04:24:09;;;;;;;;;10.00;8.00;20.80;39.20;;;;;;111271;1244;56971;-60
2023/04/17 04:26:39;;;;;;;;;10.67;8.00;20.80;39.20;;;;;;111157;1240;54122;-62
2023/04/17 04:29:08;;;;;;;;;9.50;8.00;20.70;39.20;;;;;;111215;1244;49302;-61
2023/04/17 04:31:36;;;;;;;;;8.75;7.75;20.80;39.20;;;;;;111247;1241;49439;-61
2023/04/17 04:34:04;;;;;;;;;9.00;8.00;20.80;39.20;;;;;;111201;1240;45873;-60
2023/04/17 04:36:34;;;;;;;;;8.00;7.00;20.80;39.20;;;;;;111192;1239;56044;-61
2023/04/17 04:39:04;;;;;;;;;9.75;8.00;20.80;39.20;;;;;;111271;1244;54083;-61
2023/04/17 04:41:32;;;;;;;;;7.75;6.75;20.80;38.70;;;;;;111222;1239;48776;-60
2023/04/17 04:44:00;;;;;;;;;9.00;8.00;20.80;39.20;;;;;;111219;1241;49508;-61
2023/04/17 04:46:27;;;;;;;;;11.00;10.00;20.70;39.20;;;;;;111200;1239;46212;-62
2023/04/17 04:48:54;;;;;;;;;9.50;8.00;20.80;39.30;;;;;;110482;1244;1154186;-62
2023/04/17 04:51:20;;;;;;;;;9.00;8.00;20.70;39.20;;;;;;111219;1244;54545;-60
2023/04/17 04:53:47;;;;;;;;;8.67;7.00;20.80;39.30;;;;;;111240;1240;49461;-61
2023/04/17 04:56:14;;;;;;;;;9.75;8.00;20.70;39.20;;;;;;111258;1239;48327;-59
2023/04/17 04:58:41;;;;;;;;;9.00;8.00;20.70;38.70;;;;;;111251;1240;45595;-62
2023/04/17 05:01:08;;;;;;;;;8.00;7.00;20.70;39.40;;;;;;111351;1244;56786;-61
2023/04/17 05:03:36;;;;;;;;;10.75;8.75;20.70;39.20;;;;;;111333;1240;54112;-61
2023/04/17 05:06:03;;;;;;;;;9.50;8.25;20.70;39.20;;;;;;111288;1240;48749;-61
2023/04/17 05:08:30;;;;;;;;;8.00;7.00;20.70;39.20;;;;;;111283;1244;48471;-61
2023/04/17 05:10:58;;;;;;;;;10.50;7.50;20.70;39.40;;;;;;111160;1241;45500;-61
2023/04/17 05:13:24;;;;;;;;;11.25;8.75;20.70;39.20;;;;;;111170;1241;55632;-61
2023/04/17 05:15:51;;;;;;;;;9.00;7.75;20.70;39.20;;;;;;111237;1239;53684;-61
2023/04/17 05:18:18;;;;;;;;;9.75;9.00;20.70;39.40;;;;;;111265;1244;50026;-61
2023/04/17 05:20:45;;;;;;;;;9.50;8.50;20.70;39.20;;;;;;111233;1241;48475;-61
2023/04/17 05:23:12;;;;;;;;;9.75;8.75;20.70;39.20;;;;;;111278;1241;45597;-62
2023/04/17 05:25:39;;;;;;;;;10.75;9.75;20.70;39.20;;;;;;111239;1239;56144;-61
2023/04/17 05:28:06;;;;;;;;;9.25;7.75;20.70;39.80;;;;;;111161;1243;54183;-61
2023/04/17 05:30:34;;;;;;;;;9.25;8.00;20.70;39.20;;;;;;111175;1241;50489;-60
2023/04/17 05:33:01;;;;;;;;;9.00;8.00;20.70;39.20;;;;;;111214;1244;49298;-60
2023/04/17 05:35:28;;;;;;;;;9.75;8.75;20.70;39.40;;;;;;111206;1239;45877;-61
2023/04/17 05:37:55;;;;;;;;;9.75;7.75;20.70;39.40;;;;;;111314;1244;55253;-62
2023/04/17 05:40:22;;;;;;;;;9.67;8.67;20.70;39.20;;;;;;111252;1244;53454;-63
2023/04/17 05:42:49;;;;;;;;;9.00;8.00;20.70;39.20;;;;;;111192;1246;50313;-61
2023/04/17 05:45:19;;;;;;;;;9.50;8.00;20.70;39.20;;;;;;111333;1244;49095;-62
2023/04/17 05:47:46;;;;;;;;;9.00;8.00;20.70;39.30;;;;;;111241;1240;45469;-63
2023/04/17 05:50:13;;;;;;;;;9.00;8.00;20.70;39.20;;;;;;111181;1244;56394;-61
2023/04/17 05:52:40;;;;;;;;;10.00;8.00;20.70;39.20;;;;;;111202;1242;54411;-61
2023/04/17 05:55:07;;;;;;;;;10.50;9.00;20.70;39.20;;;;;;111184;1244;49045;-60
2023/04/17 05:57:35;;;;;;;;;11.00;9.67;20.70;39.30;;;;;;111180;1240;48784;-61
2023/04/17 06:00:09;;;;;;;;;9.00;7.00;20.70;39.50;;;;;;111189;1244;45884;-61
2023/04/17 06:02:36;;;;;;;;;8.75;7.75;20.70;39.50;;;;;;111205;1244;56135;-61
2023/04/17 06:05:05;;;;;;;;;8.75;7.75;20.70;39.30;;;;;;111212;1240;53443;-62
2023/04/17 06:07:33;;;;;;;;;11.00;8.00;20.70;39.30;;;;;;111230;1244;49870;-62
2023/04/17 06:10:01;;;;;;;;;9.75;8.75;20.70;39.20;;;;;;111190;1243;49693;-62
2023/04/17 06:12:28;;;;;;;;;10.00;9.00;20.70;39.30;;;;;;111234;1240;45445;-62
2023/04/17 06:14:55;;;;;;;;;8.00;7.00;20.70;39.30;;;;;;111340;1244;55927;-62
2023/04/17 06:17:22;;;;;;;;;10.50;9.00;20.70;39.30;;;;;;111279;1240;54792;-63
2023/04/17 06:19:49;;;;;;;;;10.00;9.00;20.70;39.30;;;;;;111273;1244;49042;-61
2023/04/17 06:22:16;;;;;;;;;11.00;10.00;20.70;39.30;;;;;;111201;1243;49284;-62
2023/04/17 06:24:43;;;;;;;;;9.00;8.00;20.70;39.30;;;;;;111193;1243;45517;-60
2023/04/17 06:27:10;;;;;;;;;9.25;8.25;20.70;39.30;;;;;;111233;1244;55738;-61
2023/04/17 06:29:37;;;;;;;;;11.00;9.00;20.70;39.50;;;;;;111324;1244;53610;-61
2023/04/17 06:32:05;;;;;;;;;9.00;8.00;20.70;39.20;;;;;;111191;1240;49308;-61
2023/04/17 06:34:32;;;;;;;;;9.75;7.75;20.70;39.30;;;;;;111254;1241;49120;-60
2023/04/17 06:36:59;;;;;;;;;10.25;8.00;20.70;39.30;;;;;;111183;1241;45803;-60
2023/04/17 06:39:26;;;;;;;;;10.00;8.67;20.70;39.30;;;;;;111201;1240;55572;-63
2023/04/17 06:41:54;;;;;;;;;10.00;8.67;20.70;39.30;;;;;;111205;1243;53395;-61
2023/04/17 06:44:21;;;;;;;;;10.00;8.67;20.70;39.30;;;;;;111218;1244;49863;-60
2023/04/17 06:46:51;;;;;;;;;10.00;9.00;20.70;39.30;;;;;;111187;1241;50623;-62
2023/04/17 06:49:18;;;;;;;;;11.00;10.00;20.70;39.30;;;;;;111445;1244;45834;-61
2023/04/17 06:51:46;;;;;;;;;9.00;8.00;20.70;39.20;;;;;;111249;1241;55707;-60
2023/04/17 06:54:13;;;;;;;;;11.00;10.00;20.70;39.20;;;;;;111173;1244;53610;-60
2023/04/17 06:56:40;;;;;;;;;10.00;8.75;20.70;39.20;;;;;;111174;1242;49725;-61
2023/04/17 06:59:07;;;;;;;;;10.00;8.75;20.70;39.20;;;;;;111166;1244;50222;-61
2023/04/17 07:01:34;;;;;;;;;9.25;8.00;20.70;39.20;;;;;;111170;1239;45808;-61
2023/04/17 07:04:01;;;;;;;;;11.75;10.00;20.70;39.20;;;;;;111209;1244;56451;-60
2023/04/17 07:06:28;;;;;;;;;10.75;8.50;20.80;39.30;;;;;;111270;1240;55619;-61
2023/04/17 07:08:55;;;;;;;;;12.25;9.00;20.70;39.20;;;;;;111148;1243;50580;-62
2023/04/17 07:11:22;;;;;;;;;10.67;9.00;20.80;39.30;;;;;;111157;1240;49575;-61
2023/04/17 07:13:49;;;;;;;;;12.25;9.00;20.80;39.30;;;;;;111182;1240;44993;-61
2023/04/17 07:16:16;;;;;;;;;10.00;9.00;20.80;39.50;;;;;;111239;1240;55067;-63
2023/04/17 07:18:43;;;;;;;;;9.00;8.00;20.80;39.20;;;;;;111176;1241;53891;-61
2023/04/17 07:21:10;;;;;;;;;11.25;7.75;20.80;39.20;;;;;;111226;1243;49756;-60
2023/04/17 07:23:37;;;;;;;;;11.67;10.00;20.80;39.10;;;;;;111177;1241;49290;-61
2023/04/17 07:26:04;;;;;;;;;10.00;9.00;20.90;39.20;;;;;;111241;1244;46069;-63
2023/04/17 07:28:31;;;;;;;;;9.75;8.25;20.90;39.20;;;;;;111196;1244;55921;-61
2023/04/17 07:30:57;;;;;;;;;10.00;8.25;20.90;39.10;;;;;;111284;1244;54001;-61
2023/04/17 07:33:25;;;;;;;;;10.00;9.00;20.90;39.10;;;;;;111202;1241;48818;-61
2023/04/17 07:35:52;;;;;;;;;10.75;7.75;20.90;39.30;;;;;;111238;1241;49433;-60
2023/04/17 07:38:19;;;;;;;;;9.00;8.25;20.90;39.10;;;;;;111224;1240;46445;-61
2023/04/17 07:40:46;;;;;;;;;11.00;10.00;20.90;39.10;;;;;;111169;1241;55137;-61
2023/04/17 07:43:14;;;;;;;;;11.00;9.25;20.90;39.10;;;;;;111168;1241;53647;-62
2023/04/17 07:45:41;;;;;;;;;8.75;7.75;20.90;39.10;;;;;;111182;1244;49941;-61
2023/04/17 07:48:08;;;;;;;;;11.00;10.00;20.90;39.20;;;;;;111192;1240;49252;-63
2023/04/17 07:50:35;;;;;;;;;11.00;10.00;21.00;39.30;;;;;;110972;1246;46237;-64
2023/04/17 07:53:02;;;;;;;;;9.75;8.75;21.00;39.30;;;;;;111278;1244;56576;-63
2023/04/17 07:55:29;;;;;;;;;12.25;9.00;21.00;39.30;;;;;;111297;1243;53521;-62
2023/04/17 07:57:56;;;;;;;;;10.00;9.00;21.00;39.50;;;;;;111150;1244;49948;-62
2023/04/17 08:00:23;;;;;;;;;10.00;9.00;21.10;39.30;;;;;;111153;1244;49758;-61
2023/04/17 08:02:51;;;;;;;;;10.00;8.75;21.10;39.30;;;;;;111194;1241;46289;-62
2023/04/17 08:05:18;;;;;;;;;9.33;7.67;21.10;39.30;;;;;;111327;1241;55851;-62
2023/04/17 08:07:45;;;;;;;;;10.75;9.75;21.10;38.80;;;;;;111217;1240;54025;-62
2023/04/17 08:10:12;;;;;;;;;11.00;9.00;21.20;39.20;;;;;;111258;1244;49879;-62
2023/04/17 08:12:39;;;;;;;;;10.00;8.00;21.20;39.20;;;;;;111194;1240;49771;-62
2023/04/17 08:15:07;;;;;;;;;11.00;9.75;21.20;39.20;;;;;;111215;1244;46102;-65
2023/04/17 08:17:34;;;;;;;;;9.00;8.00;21.20;39.20;;;;;;111309;1244;55285;-61
2023/04/17 08:20:02;;;;;;;;;11.00;10.00;21.20;39.10;;;;;;111408;1241;53696;-61
2023/04/17 08:22:29;;;;;;;;;10.00;8.50;21.20;39.10;;;;;;111207;1240;49502;-61
2023/04/17 08:24:56;;;;;;;;;11.25;10.00;21.30;39.20;;;;;;111216;1243;50227;-61
2023/04/17 08:27:24;;;;;;;;;10.00;9.00;21.30;39.20;;;;;;110969;1244;47112;-61
2023/04/17 08:29:53;;;;;;;;;10.00;8.33;21.30;39.20;;;;;;111169;1241;56090;-62
2023/04/17 08:32:20;;;;;;;;;10.67;9.33;21.30;39.20;;;;;;111216;1243;54360;-60
2023/04/17 08:34:47;;;;;;;;;10.75;9.25;21.30;39.20;;;;;;111212;1244;48826;-61
2023/04/17 08:37:14;;;;;;;;;10.00;8.50;21.30;39.20;;;;;;111155;1243;50015;-60
2023/04/17 08:39:41;;;;;;;;;10.75;9.00;21.30;39.10;;;;;;111174;1244;45545;-60
2023/04/17 08:42:09;;;;;;;;;11.00;10.00;21.30;39.10;;;;;;111193;1241;55768;-62
2023/04/17 08:44:36;;;;;;;;;9.00;8.00;21.30;39.10;;;;;;111211;1242;54353;-61
2023/04/17 08:47:06;;;;;;;;;12.00;11.00;21.30;39.20;;;;;;111159;1241;49674;-61
2023/04/17 08:49:34;;;;;;;;;9.75;8.75;21.30;39.10;;;;;;110958;1242;49950;-61
2023/04/17 08:52:06;;;;;;;;;10.25;9.00;21.30;39.10;;;;;;111424;1241;46741;-60
2023/04/17 08:54:35;;;;;;;;;12.67;10.00;21.40;39.20;;;;;;111329;1240;55717;-60
2023/04/17 08:57:03;;;;;;;;;11.00;9.00;21.40;39.20;;;;;;111207;1243;53692;-60
2023/04/17 08:59:31;;;;;;;;;12.50;9.00;21.40;39.20;;;;;;111203;1243;49552;-60
2023/04/17 09:02:05;;;;;;;;;11.75;10.00;21.40;39.40;;;;;;111180;1241;49722;-60
2023/04/17 09:04:46;;;;;;;;;10.67;9.33;21.40;39.10;;;;;;111223;1247;45793;-61
2023/04/17 09:07:16;;;;;;;;;10.75;9.25;21.40;39.20;;;;;;111210;1241;55553;-60
2023/04/17 09:09:50;;;;;;;;;10.00;7.00;21.40;38.70;;;;;;111218;1244;53407;-61
2023/04/17 09:12:21;;;;;;;;;10.75;8.00;21.40;39.10;;;;;;111246;1244;49654;-61
2023/04/17 09:14:49;;;;;;;;;9.00;8.00;21.40;39.20;;;;;;111267;1244;49481;-62
2023/04/17 09:17:18;;;;;;;;;11.00;9.00;21.40;39.20;;;;;;111321;1241;46633;-62
2023/04/17 09:20:16;;;;;;;;;10.50;9.50;21.40;39.20;;;;;;111312;1245;55684;-61
2023/04/17 09:22:43;;;;;;;;;10.33;9.00;21.50;39.20;;;;;;111081;1244;53629;-61
2023/04/17 09:25:17;;;;;;;;;10.67;9.00;21.50;39.40;;;;;;111221;1241;49759;-60
2023/04/17 09:27:45;;;;;;;;;10.00;9.00;21.50;39.40;;;;;;111182;1240;49821;-61
2023/04/17 09:30:12;;;;;;;;;11.00;10.00;21.50;39.70;;;;;;111177;1243;45315;-61
2023/04/17 09:32:39;;;;;;;;;10.75;9.75;21.50;39.20;;;;;;111160;1241;55886;-61
2023/04/17 09:35:07;;;;;;;;;11.75;10.25;21.50;39.20;;;;;;111207;1241;54925;-60
2023/04/17 09:37:54;;;;;;;;;11.00;8.00;21.50;39.30;;;;;;111190;1241;50152;-61
2023/04/17 09:40:24;;;;;;;;;10.00;9.00;21.50;39.30;;;;;;111178;1241;49280;-60
2023/04/17 09:42:59;;;;;;;;;10.75;9.00;21.50;39.60;;;;;;111251;1241;46276;-61
2023/04/17 09:45:39;;;;;;;;;10.33;9.00;21.50;39.30;;;;;;111354;1244;55538;-61
2023/04/17 09:48:12;;;;;;;;;9.67;8.67;21.40;39.30;;;;;;111198;1241;54518;-60
2023/04/17 09:50:39;;;;;;;;;10.00;8.75;21.50;39.30;;;;;;111198;1240;49077;-60
2023/04/17 09:53:06;;;;;;;;;10.33;9.00;21.50;39.50;;;;;;111132;1241;50082;-61
2023/04/17 09:55:36;;;;;;;;;10.00;8.25;21.50;39.30;;;;;;111200;1247;46219;-60
2023/04/17 09:58:05;;;;;;;;;10.00;9.00;21.50;39.40;;;;;;111179;1244;55841;-59
2023/04/17 10:00:32;;;;;;;;;9.75;8.25;21.50;39.40;;;;;;111233;1240;53857;-59
2023/04/17 10:02:59;;;;;;;;;10.67;9.67;21.50;39.30;;;;;;111201;1243;49697;-61
2023/04/17 10:05:27;;;;;;;;;12.00;10.00;21.50;39.40;;;;;;111197;1244;49549;-61
2023/04/17 10:07:55;;;;;;;;;11.67;9.00;21.50;39.40;;;;;;111237;1244;45577;-61
2023/04/17 10:10:24;;;;;;;;;10.00;8.33;21.50;39.40;;;;;;111225;1244;55122;-60
2023/04/17 10:12:54;;;;;;;;;9.67;8.67;21.50;39.60;;;;;;111143;1241;53519;-61
2023/04/17 10:15:24;;;;;;;;;11.00;9.75;21.50;39.50;;;;;;111030;1243;50403;-60
2023/04/17 10:17:52;;;;;;;;;10.00;9.00;21.50;39.50;;;;;;111309;1241;49097;-60
2023/04/17 10:20:19;;;;;;;;;11.00;10.00;21.60;39.50;;;;;;111235;1244;45690;-61
2023/04/17 10:22:53;;;;;;;;;12.75;10.00;21.60;39.50;;;;;;111236;1244;55506;-61
2023/04/17 10:25:20;;;;;;;;;13.00;10.00;21.60;39.50;;;;;;111242;1241;53668;-61
2023/04/17 10:27:49;;;;;;;;;10.00;9.00;21.60;39.40;;;;;;111174;1239;49572;-61
2023/04/17 10:30:18;;;;;;;;;11.75;10.00;21.70;39.70;;;;;;111290;1241;48832;-62
2023/04/17 10:32:45;;;;;;;;;9.00;8.00;21.80;39.50;;;;;;111297;1243;45479;-61
2023/04/17 10:35:15;;;;;;;;;9.75;8.00;21.80;39.40;;;;;;111248;1241;55822;-61
2023/04/17 10:37:45;;;;;;;;;10.33;9.00;21.80;39.60;;;;;;111219;1240;54067;-60
2023/04/17 10:40:26;;;;;;;;;10.00;9.00;21.90;39.40;;;;;;111210;1244;48637;-61
2023/04/17 10:43:22;;;;;;;;;11.00;10.00;21.90;39.30;;;;;;111255;1242;49250;-60
2023/04/17 10:45:53;;;;;;;;;11.50;9.75;22.00;39.40;;;;;;111292;1241;45573;-60
2023/04/17 10:48:22;;;;;;;;;12.00;9.00;22.00;39.30;;;;;;111217;1244;56083;-61
2023/04/17 10:50:49;;;;;;;;;10.00;8.67;22.00;39.30;;;;;;111201;1241;54516;-60
2023/04/17 10:53:40;;;;;;;;;12.33;11.00;22.00;39.30;;;;;;111055;1243;49413;-60
2023/04/17 10:56:09;;;;;;;;;11.00;9.00;22.00;39.50;;;;;;111284;1244;49141;-61
2023/04/17 10:58:57;;;;;;;;;10.00;8.75;22.00;39.60;;;;;;111178;1243;46062;-61
2023/04/17 11:01:28;;;;;;;;;11.00;10.00;22.00;39.30;;;;;;111260;1244;55736;-60
2023/04/17 11:03:58;;;;;;;;;10.75;9.50;22.00;39.30;;;;;;111185;1243;54226;-60
2023/04/17 11:06:32;;;;;;;;;11.67;8.67;22.10;39.30;;;;;;111210;1243;49880;-60
2023/04/17 11:08:59;;;;;;;;;10.00;9.50;22.10;39.30;;;;;;111259;1244;50388;-61
2023/04/17 11:11:26;;;;;;;;;10.67;9.00;22.10;39.30;;;;;;111189;1241;46681;-60
2023/04/17 11:13:53;;;;;;;;;10.25;9.00;22.20;39.30;;;;;;111207;1244;56377;-62
2023/04/17 11:16:21;;;;;;;;;9.25;8.00;22.20;39.30;;;;;;111221;1239;53818;-61
2023/04/17 11:18:48;;;;;;;;;12.33;11.00;22.30;39.40;;;;;;111211;1241;49225;-61
2023/04/17 11:21:15;;;;;;;;;10.00;8.00;22.30;39.30;;;;;;111179;1243;49702;-60
2023/04/17 11:23:52;;;;;;;;;9.00;8.00;22.30;39.30;;;;;;111274;1241;45188;-60
2023/04/17 11:26:19;;;;;;;;;10.75;9.25;22.30;39.50;;;;;;111366;1241;55195;-60
2023/04/17 11:28:46;;;;;;;;;11.00;9.00;22.40;39.30;;;;;;111225;1240;53931;-61
2023/04/17 11:31:14;;;;;;;;;10.00;9.00;22.40;39.30;;;;;;111216;1244;49722;-61
2023/04/17 11:33:41;;;;;;;;;11.00;9.00;22.40;39.30;;;;;;111249;1244;49768;-60
2023/04/17 11:36:09;;;;;;;;;9.00;8.00;22.40;39.30;;;;;;111246;1242;45499;-60
2023/04/17 11:38:46;;;;;;;;;12.75;9.50;22.40;39.80;;;;;;111293;1241;56790;-60
2023/04/17 11:41:13;;;;;;;;;9.75;8.75;22.50;39.30;;;;;;111196;1244;54429;-61
2023/04/17 11:43:40;;;;;;;;;9.75;8.75;22.50;39.30;;;;;;111003;1241;49512;-62
2023/04/17 11:46:07;;;;;;;;;10.50;9.00;22.50;39.30;;;;;;111230;1241;49164;-59
2023/04/17 11:48:34;;;;;;;;;9.75;8.75;22.50;39.20;;;;;;111257;1241;45302;-60
2023/04/17 11:51:05;;;;;;;;;10.00;8.25;22.50;39.20;;;;;;111213;1244;55851;-60
2023/04/17 11:53:34;;;;;;;;;10.75;9.25;22.60;39.50;;;;;;111215;1245;54386;-60
2023/04/17 11:56:18;;;;;;;;;10.00;8.75;22.60;39.30;;;;;;111242;1244;49111;-61
2023/04/17 11:58:50;;;;;;;;;9.00;8.00;22.60;39.30;;;;;;111208;1244;49509;-60
2023/04/17 12:01:20;;;;;;;;;11.75;8.50;22.70;39.40;;;;;;111413;1241;45176;-60
2023/04/17 12:03:47;;;;;;;;;8.00;7.00;22.70;39.30;;;;;;111218;1245;54942;-61
2023/04/17 12:06:14;;;;;;;;;9.75;9.00;22.70;39.30;;;;;;111261;1241;54389;-60
2023/04/17 12:08:46;;;;;;;;;10.00;9.00;22.70;39.30;;;;;;111201;1241;48654;-60
2023/04/17 12:11:23;;;;;;;;;11.00;10.00;22.80;39.40;;;;;;111176;1244;48893;-60
2023/04/17 12:13:52;;;;;;;;;10.00;8.67;22.80;39.30;;;;;;110991;1247;46167;-60
2023/04/17 12:16:19;;;;;;;;;10.00;8.75;22.80;39.30;;;;;;111218;1243;56655;-60
2023/04/17 12:18:46;;;;;;;;;10.00;9.33;22.80;39.20;;;;;;111240;1241;54038;-61
2023/04/17 12:21:13;;;;;;;;;12.00;9.00;22.90;39.50;;;;;;111237;1240;48997;-60
2023/04/17 12:23:40;;;;;;;;;13.25;8.00;22.90;39.20;;;;;;111198;1244;49325;-60
2023/04/17 12:26:08;;;;;;;;;10.67;7.67;22.90;39.20;;;;;;110992;1244;45809;-60
2023/04/17 12:28:35;;;;;;;;;10.75;9.75;22.90;39.20;;;;;;111203;1244;55752;-62
2023/04/17 12:31:03;;;;;;;;;11.25;9.75;22.90;39.20;;;;;;111180;1243;53696;-61
2023/04/17 12:33:31;;;;;;;;;10.75;9.75;22.90;39.20;;;;;;111231;1244;49643;-60
2023/04/17 12:36:00;;;;;;;;;11.00;10.00;22.90;39.20;;;;;;110990;1244;49521;-61